createdAt,value
2023-06-12T00:01:27.728Z,23.25
2023-06-12T00:03:58.920Z,23.28
2023-06-12T00:06:25.930Z,23.26
2023-06-12T00:08:53.022Z,23.15
2023-06-12T00:11:20.013Z,23.26
2023-06-12T00:13:48.484Z,23.08
2023-06-12T00:16:18.160Z,23.20
2023-06-12T00:18:48.273Z,23.14
2023-06-12T00:21:17.000Z,23.04
2023-06-12T00:23:45.380Z,22.95
2023-06-12T00:26:12.314Z,22.81
2023-06-12T00:28:39.422Z,22.86
2023-06-12T00:31:06.104Z,22.76
2023-06-12T00:33:32.948Z,22.67
2023-06-12T00:36:07.759Z,22.51
2023-06-12T00:38:42.085Z,22.61
2023-06-12T00:41:10.612Z,22.46
2023-06-12T00:43:37.855Z,22.49
2023-06-12T00:46:05.326Z,22.42
2023-06-12T00:48:33.829Z,22.45
2023-06-12T00:51:02.637Z,22.16
2023-06-12T00:53:31.242Z,22.16
2023-06-12T00:55:59.491Z,22.31
2023-06-12T00:58:28.320Z,22.24
2023-06-12T01:00:57.890Z,22.17
2023-06-12T01:03:26.463Z,22.17
2023-06-12T01:05:53.967Z,22.12
2023-06-12T01:08:43.097Z,22.13
2023-06-12T01:11:12.906Z,22.03
2023-06-12T01:13:40.051Z,22.00
2023-06-12T01:16:08.300Z,21.99
2023-06-12T01:18:35.299Z,21.96
2023-06-12T01:21:06.660Z,21.90
2023-06-12T01:24:09.869Z,21.93
2023-06-12T01:26:46.762Z,21.83
2023-06-12T01:29:47.676Z,21.70
2023-06-12T01:32:18.196Z,21.80
2023-06-12T01:34:53.048Z,21.73
2023-06-12T01:37:44.298Z,21.74
2023-06-12T01:40:14.209Z,21.58
2023-06-12T01:42:44.021Z,21.54
2023-06-12T01:45:11.217Z,21.47
2023-06-12T01:47:38.187Z,21.61
2023-06-12T01:50:06.119Z,21.65
2023-06-12T01:52:34.086Z,21.65
2023-06-12T01:55:02.114Z,21.64
2023-06-12T01:57:31.488Z,21.43
2023-06-12T01:59:58.557Z,21.42
2023-06-12T02:02:26.439Z,21.47
2023-06-12T02:04:54.572Z,21.51
2023-06-12T02:07:21.363Z,21.49
2023-06-12T02:09:48.346Z,21.30
2023-06-12T02:12:15.381Z,21.30
2023-06-12T02:14:43.187Z,21.30
2023-06-12T02:17:14.815Z,21.32
2023-06-12T02:19:41.476Z,21.22
2023-06-12T02:22:08.512Z,21.15
2023-06-12T02:24:37.801Z,21.32
2023-06-12T02:27:05.001Z,21.18
2023-06-12T02:29:32.103Z,21.37
2023-06-12T02:31:59.133Z,21.33
2023-06-12T02:34:25.976Z,21.12
2023-06-12T02:36:52.786Z,21.14
2023-06-12T02:39:19.633Z,21.14
2023-06-12T02:41:48.703Z,21.29
2023-06-12T02:44:16.927Z,21.22
2023-06-12T02:47:03.954Z,21.21
2023-06-12T02:49:31.348Z,21.17
2023-06-12T02:51:59.658Z,21.06
2023-06-12T02:54:27.678Z,20.97
2023-06-12T02:56:57.287Z,20.90
2023-06-12T02:59:25.113Z,21.04
2023-06-12T03:01:52.385Z,20.90
2023-06-12T03:04:20.984Z,20.98
2023-06-12T03:06:53.923Z,20.89
2023-06-12T03:09:23.007Z,20.87
2023-06-12T03:11:53.048Z,20.90
2023-06-12T03:14:26.087Z,20.85
2023-06-12T03:16:54.765Z,20.88
2023-06-12T03:19:22.370Z,20.96
2023-06-12T03:21:51.820Z,20.86
2023-06-12T03:24:19.593Z,20.87
2023-06-12T03:26:46.293Z,20.90
2023-06-12T03:29:15.722Z,20.76
2023-06-12T03:31:43.185Z,20.86
2023-06-12T03:34:16.390Z,20.98
2023-06-12T03:36:54.657Z,20.89
2023-06-12T03:39:24.343Z,21.08
2023-06-12T03:41:59.209Z,21.18
2023-06-12T03:44:27.746Z,21.37
2023-06-12T03:46:54.970Z,21.66
2023-06-12T03:49:22.231Z,21.80
2023-06-12T03:51:49.451Z,21.97
2023-06-12T03:54:16.114Z,22.07
2023-06-12T03:56:43.413Z,22.39
2023-06-12T03:59:12.325Z,22.51
2023-06-12T04:01:40.129Z,22.70
2023-06-12T04:04:07.121Z,22.50
2023-06-12T04:06:34.331Z,23.05
2023-06-12T04:09:02.423Z,23.25
2023-06-12T04:11:30.298Z,23.40
2023-06-12T04:13:58.059Z,23.44
2023-06-12T04:16:25.715Z,23.52
2023-06-12T04:18:54.687Z,23.41
2023-06-12T04:21:22.711Z,23.82
2023-06-12T04:23:53.575Z,23.89
2023-06-12T04:26:22.566Z,24.15
2023-06-12T04:28:54.429Z,23.67
2023-06-12T04:31:33.126Z,24.09
2023-06-12T04:34:08.848Z,24.31
2023-06-12T04:36:58.521Z,24.65
2023-06-12T04:39:26.418Z,25.03
2023-06-12T04:41:54.610Z,25.37
2023-06-12T04:44:24.708Z,25.77
2023-06-12T04:46:53.930Z,25.74
2023-06-12T04:49:21.794Z,25.92
2023-06-12T04:51:49.966Z,26.01
2023-06-12T04:54:20.656Z,26.15
2023-06-12T04:56:49.279Z,26.50
2023-06-12T04:59:17.809Z,26.12
2023-06-12T05:01:47.444Z,26.52
2023-06-12T05:04:17.528Z,26.92
2023-06-12T05:06:44.249Z,26.22
2023-06-12T05:09:11.165Z,27.27
2023-06-12T05:11:38.444Z,26.93
2023-06-12T05:14:05.071Z,26.90
2023-06-12T05:16:33.717Z,26.69
2023-06-12T05:19:00.811Z,27.09
2023-06-12T05:21:27.658Z,27.87
2023-06-12T05:23:54.306Z,27.22
2023-06-12T05:26:22.515Z,27.63
2023-06-12T05:28:49.697Z,27.98
2023-06-12T05:31:17.682Z,28.11
2023-06-12T05:33:48.213Z,28.15
2023-06-12T05:36:17.307Z,28.25
2023-06-12T05:38:53.498Z,28.05
2023-06-12T05:41:20.101Z,27.97
2023-06-12T05:43:47.336Z,28.72
2023-06-12T05:46:14.755Z,28.47
2023-06-12T05:48:41.770Z,28.78
2023-06-12T05:51:09.518Z,28.12
2023-06-12T05:53:36.441Z,29.07
2023-06-12T05:56:04.274Z,29.42
2023-06-12T05:58:32.601Z,29.46
2023-06-12T06:01:02.921Z,30.72
2023-06-12T06:03:34.119Z,29.60
2023-06-12T06:06:00.956Z,30.06
2023-06-12T06:08:27.941Z,30.73
2023-06-12T06:10:55.282Z,30.90
2023-06-12T06:13:22.255Z,31.34
2023-06-12T06:15:50.334Z,31.04
2023-06-12T06:18:17.417Z,30.65
2023-06-12T06:20:44.297Z,31.50
2023-06-12T06:23:11.079Z,31.14
2023-06-12T06:25:39.774Z,32.53
2023-06-12T06:28:07.021Z,31.88
2023-06-12T06:30:34.110Z,32.43
2023-06-12T06:33:02.074Z,32.83
2023-06-12T06:35:30.083Z,31.90
2023-06-12T06:37:57.335Z,32.05
2023-06-12T06:40:24.511Z,32.42
2023-06-12T06:42:51.114Z,33.23
2023-06-12T06:45:17.795Z,32.55
2023-06-12T06:47:44.744Z,32.26
2023-06-12T06:50:12.013Z,32.49
2023-06-12T06:52:39.011Z,32.35
2023-06-12T06:55:06.748Z,32.39
2023-06-12T06:57:34.913Z,32.82
2023-06-12T07:00:06.788Z,33.03
2023-06-12T07:02:33.557Z,33.76
2023-06-12T07:05:04.293Z,33.30
2023-06-12T07:07:31.630Z,33.78
2023-06-12T07:09:58.383Z,34.43
2023-06-12T07:12:25.085Z,34.78
2023-06-12T07:14:52.199Z,33.77
2023-06-12T07:17:19.255Z,33.80
2023-06-12T07:19:47.488Z,34.51
2023-06-12T07:22:14.228Z,33.76
2023-06-12T07:24:40.902Z,34.26
2023-06-12T07:27:07.781Z,34.85
2023-06-12T07:29:34.500Z,37.18
2023-06-12T07:32:01.409Z,36.14
2023-06-12T07:34:28.060Z,35.23
2023-06-12T07:36:54.850Z,35.65
2023-06-12T07:39:22.112Z,36.47
2023-06-12T07:41:48.892Z,35.18
2023-06-12T07:44:19.339Z,36.60
2023-06-12T07:46:46.561Z,35.85
2023-06-12T07:49:14.861Z,36.57
2023-06-12T07:51:41.526Z,36.13
2023-06-12T07:54:08.357Z,35.40
2023-06-12T07:56:36.534Z,36.70
2023-06-12T07:59:10.659Z,36.64
2023-06-12T08:01:38.214Z,36.55
2023-06-12T08:04:10.267Z,36.95
2023-06-12T08:06:39.148Z,36.72
2023-06-12T08:09:06.881Z,36.90
2023-06-12T08:11:33.785Z,36.97
2023-06-12T08:14:00.587Z,36.78
2023-06-12T08:16:27.363Z,36.21
2023-06-12T08:18:59.396Z,36.61
2023-06-12T08:21:26.992Z,37.10
2023-06-12T08:23:55.059Z,37.93
2023-06-12T08:26:22.457Z,37.53
2023-06-12T08:28:53.579Z,36.96
2023-06-12T08:31:20.556Z,36.83
2023-06-12T08:33:47.318Z,38.67
2023-06-12T08:36:14.023Z,37.70
2023-06-12T08:38:41.740Z,38.54
2023-06-12T08:41:08.490Z,38.32
2023-06-12T08:43:35.545Z,39.00
2023-06-12T08:46:10.253Z,39.86
2023-06-12T08:48:37.531Z,40.55
2023-06-12T08:51:05.781Z,40.08
2023-06-12T08:53:34.784Z,39.07
2023-06-12T08:56:02.013Z,40.50
2023-06-12T08:58:28.905Z,38.82
2023-06-12T09:00:57.456Z,40.58
2023-06-12T09:03:24.455Z,40.13
2023-06-12T09:05:54.448Z,42.16
2023-06-12T09:08:21.700Z,40.85
2023-06-12T09:10:48.816Z,40.21
2023-06-12T09:13:18.223Z,40.80
2023-06-12T09:15:52.355Z,39.31
2023-06-12T09:18:21.166Z,39.83
2023-06-12T09:20:50.472Z,41.19
2023-06-12T09:23:17.932Z,39.54
2023-06-12T09:26:12.875Z,38.91
2023-06-12T09:28:39.105Z,39.23
2023-06-12T09:31:07.322Z,40.23
2023-06-12T09:33:39.763Z,39.64
2023-06-12T09:36:07.115Z,37.15
2023-06-12T09:38:35.915Z,39.65
2023-06-12T09:41:08.734Z,37.67
2023-06-12T09:43:37.145Z,39.17
2023-06-12T09:46:06.892Z,38.01
2023-06-12T09:48:39.593Z,39.02
2023-06-12T09:51:11.536Z,38.35
2023-06-12T09:53:40.979Z,38.63
2023-06-12T09:56:11.074Z,39.27
2023-06-12T09:58:39.548Z,39.58
2023-06-12T10:01:13.831Z,38.91
2023-06-12T10:03:45.894Z,39.93
2023-06-12T10:06:16.358Z,36.53
2023-06-12T10:08:44.836Z,35.86
2023-06-12T10:11:14.732Z,38.32
2023-06-12T10:13:41.818Z,40.31
2023-06-12T10:16:09.983Z,40.37
2023-06-12T10:18:41.643Z,40.91
2023-06-12T10:21:09.175Z,40.22
2023-06-12T10:23:38.451Z,39.56
2023-06-12T10:26:08.225Z,39.92
2023-06-12T10:28:37.648Z,41.54
2023-06-12T10:31:14.899Z,40.47
2023-06-12T10:34:06.686Z,42.40
2023-06-12T10:36:46.746Z,41.18
2023-06-12T10:39:25.590Z,39.95
2023-06-12T10:42:01.530Z,39.61
2023-06-12T10:44:53.548Z,40.47
2023-06-12T10:47:23.490Z,41.57
2023-06-12T10:50:00.271Z,40.74
2023-06-12T10:52:29.277Z,40.75
2023-06-12T10:55:22.236Z,40.36
2023-06-12T10:57:54.235Z,40.90
2023-06-12T11:00:23.413Z,41.49
2023-06-12T11:03:21.615Z,40.33
2023-06-12T11:05:53.139Z,41.53
2023-06-12T11:08:21.439Z,39.95
2023-06-12T11:10:48.384Z,37.84
2023-06-12T11:13:15.460Z,37.25
2023-06-12T11:15:47.894Z,36.09
2023-06-12T11:18:16.741Z,35.29
2023-06-12T11:20:51.435Z,33.72
2023-06-12T11:23:22.946Z,34.71
2023-06-12T11:25:51.219Z,34.45
2023-06-12T11:28:18.341Z,33.66
2023-06-12T11:31:03.072Z,32.96
2023-06-12T11:33:37.027Z,36.06
2023-06-12T11:36:04.705Z,36.58
2023-06-12T11:41:01.324Z,37.93
2023-06-12T11:43:29.128Z,38.30
2023-06-12T11:46:04.551Z,39.52
2023-06-12T11:51:09.414Z,39.60
2023-06-12T11:53:36.820Z,40.50
2023-06-12T11:58:42.681Z,40.51
2023-06-12T12:01:25.501Z,39.96
2023-06-12T12:04:01.547Z,40.38
2023-06-12T12:06:30.123Z,41.27
2023-06-12T12:08:57.962Z,40.78
2023-06-12T12:11:31.810Z,39.88
2023-06-12T12:14:03.521Z,41.36
2023-06-12T12:16:47.220Z,41.34
2023-06-12T12:19:27.536Z,39.86
2023-06-12T12:21:59.478Z,41.02
2023-06-12T12:24:26.320Z,40.03
2023-06-12T12:26:56.164Z,39.95
2023-06-12T12:29:23.732Z,40.61
2023-06-12T12:31:51.201Z,38.99
2023-06-12T12:34:18.406Z,39.23
2023-06-12T12:36:46.571Z,40.29
2023-06-12T12:39:16.211Z,40.88
2023-06-12T12:41:42.989Z,40.08
2023-06-12T12:44:29.426Z,41.62
2023-06-12T12:46:58.886Z,40.98
2023-06-12T12:49:25.935Z,40.95
2023-06-12T12:51:52.554Z,41.25
2023-06-12T12:54:19.861Z,40.11
2023-06-12T12:56:50.142Z,39.62
2023-06-12T12:59:17.168Z,41.22
2023-06-12T13:01:44.738Z,40.22
2023-06-12T13:04:12.300Z,40.37
2023-06-12T13:06:44.770Z,42.05
2023-06-12T13:09:11.767Z,40.31
2023-06-12T13:11:38.861Z,39.15
2023-06-12T13:14:08.521Z,40.59
2023-06-12T13:16:35.851Z,39.71
2023-06-12T13:19:03.632Z,40.06
2023-06-12T13:21:30.883Z,38.60
2023-06-12T13:23:57.905Z,38.36
2023-06-12T13:26:25.356Z,38.35
2023-06-12T13:28:52.329Z,36.21
2023-06-12T13:31:18.959Z,35.43
2023-06-12T13:33:45.830Z,34.67
2023-06-12T13:36:12.396Z,33.57
2023-06-12T13:38:39.041Z,33.98
2023-06-12T13:41:07.178Z,34.35
2023-06-12T13:43:34.509Z,35.01
2023-06-12T13:46:01.223Z,33.93
2023-06-12T13:48:28.209Z,33.00
2023-06-12T13:50:54.879Z,32.80
2023-06-12T13:53:21.468Z,34.09
2023-06-12T13:55:50.981Z,34.23
2023-06-12T13:58:17.775Z,33.98
2023-06-12T14:00:46.704Z,34.46
2023-06-12T14:03:13.700Z,34.14
2023-06-12T14:05:40.506Z,33.48
2023-06-12T14:08:07.272Z,33.70
2023-06-12T14:10:38.363Z,33.66
2023-06-12T14:13:05.297Z,33.71
2023-06-12T14:15:31.994Z,33.61
2023-06-12T14:18:03.600Z,32.92
2023-06-12T14:20:32.768Z,33.42
2023-06-12T14:23:01.683Z,32.90
2023-06-12T14:25:29.014Z,32.81
2023-06-12T14:27:56.012Z,33.00
2023-06-12T14:30:23.257Z,33.34
2023-06-12T14:32:49.901Z,33.30
2023-06-12T14:35:16.908Z,32.28
2023-06-12T14:37:44.002Z,32.34
2023-06-12T14:40:14.465Z,31.92
2023-06-12T14:42:42.178Z,31.82
2023-06-12T14:45:09.147Z,32.51
2023-06-12T14:47:36.061Z,32.89
2023-06-12T14:50:03.031Z,32.82
2023-06-12T14:52:33.782Z,33.28
2023-06-12T14:55:02.703Z,33.30
2023-06-12T14:57:35.205Z,32.92
2023-06-12T15:00:03.991Z,32.01
2023-06-12T15:02:32.680Z,32.70
2023-06-12T15:05:05.132Z,32.35
2023-06-12T15:07:32.079Z,32.14
2023-06-12T15:09:58.792Z,32.10
2023-06-12T15:12:26.365Z,32.53
2023-06-12T15:14:54.600Z,33.32
2023-06-12T15:17:21.564Z,32.68
2023-06-12T15:19:50.655Z,33.22
2023-06-12T15:22:17.547Z,32.97
2023-06-12T15:24:44.644Z,32.46
2023-06-12T15:27:12.581Z,32.55
2023-06-12T15:29:39.614Z,32.08
2023-06-12T15:32:08.666Z,31.66
2023-06-12T15:34:35.919Z,32.40
2023-06-12T15:37:03.176Z,32.43
2023-06-12T15:39:30.768Z,31.84
2023-06-12T15:42:01.685Z,31.65
2023-06-12T15:44:31.101Z,31.40
2023-06-12T15:46:58.072Z,31.70
2023-06-12T15:49:24.941Z,31.58
2023-06-12T15:51:51.521Z,31.84
2023-06-12T15:54:18.538Z,32.12
2023-06-12T15:56:45.583Z,32.22
2023-06-12T15:59:12.350Z,32.10
2023-06-12T16:01:39.863Z,32.22
2023-06-12T16:04:22.305Z,31.68
2023-06-12T16:06:50.417Z,31.96
2023-06-12T16:09:17.058Z,31.94
2023-06-12T16:11:49.094Z,31.90
2023-06-12T16:14:16.196Z,31.56
2023-06-12T16:16:43.512Z,32.03
2023-06-12T16:19:14.223Z,31.64
2023-06-12T16:21:42.458Z,31.59
2023-06-12T16:24:13.892Z,31.49
2023-06-12T16:26:40.726Z,31.27
2023-06-12T16:29:07.801Z,31.84
2023-06-12T16:31:43.337Z,31.95
2023-06-12T16:34:10.094Z,31.93
2023-06-12T16:36:41.102Z,31.75
2023-06-12T16:39:09.809Z,32.30
2023-06-12T16:41:38.060Z,31.64
2023-06-12T16:44:05.040Z,31.06
2023-06-12T16:46:35.374Z,31.33
2023-06-12T16:49:02.058Z,30.62
2023-06-12T16:51:28.717Z,31.12
2023-06-12T16:53:55.471Z,31.00
2023-06-12T16:56:22.266Z,31.46
2023-06-12T16:58:48.954Z,31.36
2023-06-12T17:01:16.244Z,31.00
2023-06-12T17:03:43.175Z,30.64
2023-06-12T17:06:12.468Z,30.45
2023-06-12T17:08:40.037Z,30.89
2023-06-12T17:11:10.420Z,30.65
2023-06-12T17:13:40.179Z,30.61
2023-06-12T17:16:08.006Z,30.91
2023-06-12T17:18:34.702Z,31.11
2023-06-12T17:21:02.918Z,30.80
2023-06-12T17:23:30.773Z,30.75
2023-06-12T17:25:57.599Z,30.70
2023-06-12T17:28:34.987Z,30.64
2023-06-12T17:31:02.097Z,30.59
2023-06-12T17:33:28.948Z,30.61
2023-06-12T17:35:56.977Z,30.63
2023-06-12T17:38:24.065Z,30.88
2023-06-12T17:40:50.795Z,30.38
2023-06-12T17:43:17.753Z,30.61
2023-06-12T17:45:46.699Z,30.65
2023-06-12T17:48:15.412Z,30.47
2023-06-12T17:50:42.300Z,30.40
2023-06-12T17:53:10.108Z,30.25
2023-06-12T17:55:38.264Z,30.33
2023-06-12T17:58:05.024Z,30.36
2023-06-12T18:00:32.123Z,30.05
2023-06-12T18:02:59.398Z,29.80
2023-06-12T18:05:26.072Z,30.30
2023-06-12T18:07:52.742Z,30.19
2023-06-12T18:10:19.674Z,30.26
2023-06-12T18:12:46.354Z,29.94
2023-06-12T18:15:20.501Z,30.19
2023-06-12T18:17:47.683Z,29.87
2023-06-12T18:20:15.160Z,29.87
2023-06-12T18:22:41.793Z,29.67
2023-06-12T18:25:10.208Z,29.90
2023-06-12T18:27:37.350Z,29.79
2023-06-12T18:30:04.613Z,30.10
2023-06-12T18:32:41.044Z,29.92
2023-06-12T18:35:09.514Z,29.75
2023-06-12T18:37:39.582Z,29.50
2023-06-12T18:40:10.464Z,29.60
2023-06-12T18:42:37.438Z,29.53
2023-06-12T18:45:04.425Z,29.40
2023-06-12T18:47:33.413Z,29.58
2023-06-12T18:50:00.139Z,29.62
2023-06-12T18:52:26.884Z,29.18
2023-06-12T18:54:57.733Z,29.33
2023-06-12T18:57:25.984Z,29.19
2023-06-12T18:59:53.301Z,29.29
2023-06-12T19:02:20.196Z,29.23
2023-06-12T19:04:49.829Z,28.95
2023-06-12T19:07:21.108Z,28.52
2023-06-12T19:09:48.354Z,28.47
2023-06-12T19:12:15.382Z,28.44
2023-06-12T19:14:43.229Z,28.16
2023-06-12T19:17:10.668Z,27.93
2023-06-12T19:19:41.189Z,27.93
2023-06-12T19:22:08.024Z,27.70
2023-06-12T19:24:34.689Z,27.97
2023-06-12T19:27:01.450Z,27.80
2023-06-12T19:29:28.550Z,28.06
2023-06-12T19:31:55.418Z,27.74
2023-06-12T19:34:22.290Z,27.17
2023-06-12T19:36:48.880Z,27.38
2023-06-12T19:39:15.398Z,27.23
2023-06-12T19:41:42.165Z,27.36
2023-06-12T19:44:08.878Z,27.19
2023-06-12T19:46:35.635Z,26.89
2023-06-12T19:49:03.092Z,27.00
2023-06-12T19:51:29.933Z,27.09
2023-06-12T19:53:56.705Z,26.95
2023-06-12T19:56:24.987Z,26.98
2023-06-12T19:58:51.720Z,26.78
2023-06-12T20:01:18.367Z,26.76
2023-06-12T20:03:45.698Z,26.49
2023-06-12T20:06:12.366Z,26.54
2023-06-12T20:08:39.022Z,26.66
2023-06-12T20:11:07.273Z,26.36
2023-06-12T20:13:34.182Z,26.22
2023-06-12T20:16:00.999Z,26.06
2023-06-12T20:18:27.989Z,25.74
2023-06-12T20:20:54.811Z,25.97
2023-06-12T20:23:21.690Z,25.66
2023-06-12T20:25:48.632Z,25.72
2023-06-12T20:28:19.230Z,25.84
2023-06-12T20:30:46.115Z,25.83
2023-06-12T20:33:15.872Z,26.04
2023-06-12T20:35:44.698Z,25.54
2023-06-12T20:38:11.933Z,25.81
2023-06-12T20:40:38.913Z,25.24
2023-06-12T20:43:07.808Z,25.48
2023-06-12T20:45:37.967Z,25.58
2023-06-12T20:48:05.523Z,25.29
2023-06-12T20:50:32.282Z,25.17
2023-06-12T20:52:59.106Z,25.31
2023-06-12T20:55:28.006Z,24.93
2023-06-12T20:57:54.728Z,25.32
2023-06-12T21:00:21.858Z,25.28
2023-06-12T21:02:49.555Z,25.27
2023-06-12T21:05:18.064Z,25.03
2023-06-12T21:07:45.240Z,24.90
2023-06-12T21:10:12.198Z,24.72
2023-06-12T21:12:39.808Z,24.98
2023-06-12T21:15:09.529Z,24.92
2023-06-12T21:17:38.037Z,24.52
2023-06-12T21:20:08.725Z,24.88
2023-06-12T21:22:45.924Z,24.88
2023-06-12T21:25:18.949Z,24.79
2023-06-12T21:27:47.423Z,24.38
2023-06-12T21:30:14.556Z,24.42
2023-06-12T21:32:41.915Z,24.33
2023-06-12T21:35:09.789Z,24.41
2023-06-12T21:37:36.471Z,24.55
2023-06-12T21:40:04.202Z,24.34
2023-06-12T21:42:32.415Z,24.46
2023-06-12T21:44:59.639Z,24.40
2023-06-12T21:47:27.601Z,24.17
2023-06-12T21:49:54.693Z,24.45
2023-06-12T21:52:22.906Z,24.30
2023-06-12T21:54:53.813Z,24.17
2023-06-12T21:57:20.604Z,24.35
2023-06-12T21:59:47.526Z,24.29
2023-06-12T22:02:17.931Z,23.88
2023-06-12T22:04:44.804Z,24.20
2023-06-12T22:07:11.450Z,24.17
2023-06-12T22:09:38.354Z,23.60
2023-06-12T22:12:06.442Z,24.13
2023-06-12T22:14:33.941Z,24.14
2023-06-12T22:17:01.258Z,23.73
2023-06-12T22:19:28.042Z,23.82
2023-06-12T22:21:57.619Z,23.70
2023-06-12T22:24:24.753Z,23.42
2023-06-12T22:26:51.622Z,23.64
2023-06-12T22:29:18.927Z,23.44
2023-06-12T22:31:45.833Z,23.78
2023-06-12T22:34:12.799Z,23.22
2023-06-12T22:36:40.451Z,23.17
2023-06-12T22:39:08.572Z,23.42
2023-06-12T22:41:36.268Z,23.47
2023-06-12T22:44:06.634Z,23.46
2023-06-12T22:46:38.079Z,23.06
2023-06-12T22:49:04.947Z,23.23
2023-06-12T22:51:31.666Z,23.23
2023-06-12T22:53:58.507Z,23.16
2023-06-12T22:56:25.180Z,23.34
2023-06-12T22:58:52.342Z,22.95
2023-06-12T23:01:19.388Z,23.02
2023-06-12T23:03:47.254Z,23.07
2023-06-12T23:06:14.904Z,22.72
2023-06-12T23:08:44.742Z,22.82
2023-06-12T23:11:11.881Z,22.77
2023-06-12T23:13:38.711Z,22.98
2023-06-12T23:16:05.960Z,22.80
2023-06-12T23:18:34.655Z,22.53
2023-06-12T23:21:03.331Z,22.39
2023-06-12T23:23:37.255Z,22.30
2023-06-12T23:26:04.748Z,22.04
2023-06-12T23:28:37.433Z,22.34
2023-06-12T23:31:04.528Z,22.27
2023-06-12T23:33:31.576Z,22.25
2023-06-12T23:35:59.099Z,22.33
2023-06-12T23:38:26.175Z,22.08
2023-06-12T23:40:53.119Z,22.07
2023-06-12T23:43:19.940Z,22.12
2023-06-12T23:45:47.028Z,22.10
2023-06-12T23:48:16.801Z,22.22
2023-06-12T23:50:46.533Z,22.24
2023-06-12T23:53:13.545Z,22.03
2023-06-12T23:55:40.642Z,22.04
2023-06-12T23:58:07.767Z,22.17
